Time;durP1;ratioP1;P1;durP2;ratioP2;P2;SDS_P1;SDS_P2;PMS_P1;PMS_P2;Temp;Humidity;BMP_temperature;BMP_pressure;BME280_temperature;BME280_humidity;BME280_pressure;Samples;Min_cycle;Max_cycle;Signal;HPM_P1;HPM_P2
2022/11/13 00:01:20;;;;;;;62.13;29.40;;;3.70;99.90;;;;;;4194554;28;20323;-68
2022/11/13 00:03:21;;;;;;;57.40;27.03;;;3.70;99.90;;;;;;4192543;28;20292;-68
2022/11/13 00:05:22;;;;;;;54.93;27.60;;;3.70;99.90;;;;;;4176274;28;20270;-63
2022/11/13 00:07:23;;;;;;;66.20;28.80;;;3.70;99.90;;;;;;4192967;28;20303;-64
2022/11/13 00:09:24;;;;;;;54.27;26.90;;;3.70;99.90;;;;;;4194462;28;20743;-63
2022/11/13 00:11:25;;;;;;;60.83;27.93;;;3.70;99.90;;;;;;4194790;28;20288;-63
2022/11/13 00:13:26;;;;;;;47.67;26.07;;;3.70;99.90;;;;;;4197147;28;20350;-63
2022/11/13 00:15:28;;;;;;;46.10;24.23;;;3.60;99.90;;;;;;4195776;28;20307;-64
2022/11/13 00:17:29;;;;;;;64.37;24.53;;;3.60;99.90;;;;;;4196483;28;20312;-65
2022/11/13 00:19:30;;;;;;;51.30;25.47;;;3.60;99.90;;;;;;4178732;28;20320;-64
2022/11/13 00:21:32;;;;;;;73.20;27.37;;;3.50;99.90;;;;;;4196062;28;20299;-69
2022/11/13 00:23:34;;;;;;;107.97;30.80;;;3.50;99.90;;;;;;4196468;28;20730;-67
2022/11/13 00:25:35;;;;;;;90.97;31.67;;;3.40;99.90;;;;;;4195993;28;20664;-67
2022/11/13 00:27:37;;;;;;;68.57;28.87;;;3.30;99.90;;;;;;4197568;28;20273;-66
2022/11/13 00:29:38;;;;;;;94.13;31.03;;;3.20;99.90;;;;;;4196365;28;20398;-64
2022/11/13 00:31:39;;;;;;;160.07;34.30;;;3.20;99.90;;;;;;4197257;28;20297;-63
2022/11/13 00:33:41;;;;;;;96.73;33.93;;;3.10;99.90;;;;;;4196150;28;20733;-63
2022/11/13 00:35:42;;;;;;;137.07;37.30;;;3.00;99.90;;;;;;4197172;28;20311;-63
2022/11/13 00:37:43;;;;;;;99.40;40.13;;;3.00;99.90;;;;;;4196117;28;20273;-64
2022/11/13 00:39:44;;;;;;;105.20;43.53;;;3.00;99.90;;;;;;4197209;28;20603;-63
2022/11/13 00:41:45;;;;;;;88.43;37.00;;;3.00;99.90;;;;;;4195145;28;20278;-65
2022/11/13 00:43:47;;;;;;;159.83;37.13;;;3.00;99.90;;;;;;4197133;28;20353;-63
2022/11/13 00:45:48;;;;;;;121.13;35.30;;;3.00;99.90;;;;;;4195768;28;20273;-68
2022/11/13 00:47:49;;;;;;;85.53;38.10;;;2.90;99.90;;;;;;4196141;28;20821;-69
2022/11/13 00:49:50;;;;;;;99.53;41.13;;;3.00;99.90;;;;;;4195528;28;20331;-64
2022/11/13 00:51:51;;;;;;;84.90;31.53;;;3.00;99.90;;;;;;4196314;28;20679;-65
2022/11/13 00:53:52;;;;;;;78.60;29.27;;;3.00;99.90;;;;;;4196559;28;20274;-64
2022/11/13 00:55:53;;;;;;;71.10;28.33;;;3.00;99.90;;;;;;4195990;28;20269;-65
2022/11/13 00:57:54;;;;;;;101.80;29.07;;;3.00;99.90;;;;;;4196993;28;20327;-68
2022/11/13 00:59:56;;;;;;;129.87;32.50;;;3.00;99.90;;;;;;4195893;28;20270;-64
2022/11/13 01:01:57;;;;;;;98.20;30.77;;;2.90;99.90;;;;;;4196924;28;20277;-63
2022/11/13 01:03:58;;;;;;;126.13;32.90;;;2.80;99.90;;;;;;4194995;28;20285;-65
2022/11/13 01:05:59;;;;;;;104.20;33.33;;;2.80;99.90;;;;;;4196151;28;20282;-64
2022/11/13 01:08:00;;;;;;;86.27;34.13;;;2.70;99.90;;;;;;4194984;28;20320;-67
2022/11/13 01:10:04;;;;;;;113.73;29.63;;;2.70;99.90;;;;;;4196438;28;20270;-64
2022/11/13 01:12:05;;;;;;;76.97;28.60;;;2.70;99.90;;;;;;4194672;28;20318;-67
2022/11/13 01:14:06;;;;;;;56.57;27.20;;;2.70;99.90;;;;;;4196078;28;20395;-63
2022/11/13 01:16:09;;;;;;;67.87;28.77;;;2.70;99.90;;;;;;4194819;28;20289;-65
2022/11/13 01:18:11;;;;;;;56.43;26.47;;;2.80;99.90;;;;;;4196576;28;20269;-68
2022/11/13 01:20:12;;;;;;;66.13;27.23;;;2.80;99.90;;;;;;4195285;28;20261;-66
2022/11/13 01:22:13;;;;;;;66.27;26.53;;;2.80;99.90;;;;;;4194297;28;20281;-64
2022/11/13 01:24:14;;;;;;;101.83;28.00;;;2.80;99.90;;;;;;4195265;28;20254;-64
2022/11/13 01:26:21;;;;;;;80.97;25.23;;;2.80;99.90;;;;;;4195485;28;20323;-64
2022/11/13 01:28:22;;;;;;;78.77;27.13;;;2.70;99.90;;;;;;4196875;28;20277;-68
2022/11/13 01:30:23;;;;;;;96.73;28.27;;;2.70;99.90;;;;;;4195448;28;20753;-64
2022/11/13 01:32:25;;;;;;;114.33;30.70;;;2.60;99.90;;;;;;4195647;28;20265;-64
2022/11/13 01:34:26;;;;;;;76.90;30.47;;;2.50;99.90;;;;;;4194396;28;20339;-64
2022/11/13 01:36:28;;;;;;;67.07;29.70;;;2.50;99.90;;;;;;4196478;28;20257;-65
2022/11/13 01:38:29;;;;;;;63.53;28.03;;;2.60;99.90;;;;;;4195184;28;20307;-64
2022/11/13 01:40:30;;;;;;;95.43;39.77;;;2.60;99.90;;;;;;4196228;28;20339;-66
2022/11/13 01:42:32;;;;;;;65.03;29.20;;;2.70;99.90;;;;;;4195019;28;20331;-65
2022/11/13 01:44:51;;;;;;;56.07;25.53;;;2.70;99.90;;;;;;4196260;28;20265;-66
2022/11/13 01:46:56;;;;;;;104.67;29.23;;;2.80;99.90;;;;;;4195101;28;20274;-64
2022/11/13 01:49:09;;;;;;;193.53;38.67;;;2.80;99.90;;;;;;4196210;28;20724;-64
2022/11/13 01:51:28;;;;;;;194.20;41.23;;;2.70;99.90;;;;;;4176836;28;20294;-66
2022/11/13 01:53:30;;;;;;;249.50;47.97;;;2.60;99.90;;;;;;4196134;28;20269;-65
2022/11/13 01:55:31;;;;;;;186.40;39.10;;;2.50;99.90;;;;;;4194756;28;20269;-66
2022/11/13 01:57:32;;;;;;;156.20;31.77;;;2.50;99.90;;;;;;4195384;28;20277;-64
2022/11/13 01:59:39;;;;;;;320.40;40.37;;;2.50;99.90;;;;;;4194810;28;20292;-67
2022/11/13 02:01:40;;;;;;;255.07;39.07;;;2.40;99.90;;;;;;4195529;28;20323;-69
2022/11/13 02:03:41;;;;;;;142.70;32.13;;;2.40;99.90;;;;;;4194921;28;20250;-63
2022/11/13 02:05:42;;;;;;;129.83;28.60;;;2.40;99.90;;;;;;4194785;28;20265;-63
2022/11/13 02:07:44;;;;;;;103.67;26.37;;;2.30;99.90;;;;;;4195067;28;20262;-63
2022/11/13 02:09:51;;;;;;;149.10;27.63;;;2.30;99.90;;;;;;4194426;28;20285;-63
2022/11/13 02:11:53;;;;;;;140.90;33.47;;;2.20;99.90;;;;;;4195030;28;20668;-63
2022/11/13 02:13:54;;;;;;;120.53;29.50;;;2.20;99.90;;;;;;4194474;28;20270;-64
2022/11/13 02:15:56;;;;;;;201.87;34.13;;;2.20;99.90;;;;;;4195454;28;20257;-63
2022/11/13 02:17:59;;;;;;;142.17;29.10;;;2.20;99.90;;;;;;4194678;28;20328;-63
2022/11/13 02:20:03;;;;;;;170.87;32.53;;;2.20;99.90;;;;;;4195731;28;20254;-63
2022/11/13 02:22:35;;;;;;;160.73;35.70;;;2.20;99.90;;;;;;4194561;28;20253;-63
2022/11/13 02:24:42;;;;;;;187.57;37.97;;;2.10;99.90;;;;;;4195304;28;20760;-66
2022/11/13 02:26:44;;;;;;;142.97;34.97;;;2.10;99.90;;;;;;4193532;28;20359;-63
2022/11/13 02:28:45;;;;;;;105.97;30.20;;;2.10;99.90;;;;;;4195206;28;20323;-66
2022/11/13 02:30:46;;;;;;;104.07;29.07;;;2.20;99.90;;;;;;4194346;28;20685;-65
2022/11/13 02:32:50;;;;;;;169.93;32.43;;;2.20;99.90;;;;;;4177046;28;20320;-64
2022/11/13 02:34:51;;;;;;;105.40;30.17;;;2.20;99.90;;;;;;4194610;28;20331;-63
2022/11/13 02:36:53;;;;;;;210.10;34.67;;;2.30;99.90;;;;;;4195306;28;20626;-63
2022/11/13 02:38:56;;;;;;;246.67;36.67;;;2.30;99.90;;;;;;4194310;28;20319;-67
2022/11/13 02:40:57;;;;;;;270.77;36.57;;;2.20;99.90;;;;;;4195477;28;20269;-64
2022/11/13 02:42:59;;;;;;;211.80;35.10;;;2.20;99.90;;;;;;4194573;28;20323;-66
2022/11/13 02:45:00;;;;;;;144.37;33.43;;;2.20;99.90;;;;;;4195473;28;20664;-65
2022/11/13 02:47:01;;;;;;;182.73;33.73;;;2.10;99.90;;;;;;4194106;28;20273;-67
2022/11/13 02:49:03;;;;;;;147.50;32.30;;;2.10;99.90;;;;;;4194499;28;20273;-64
2022/11/13 02:51:04;;;;;;;216.60;33.67;;;2.20;99.90;;;;;;4193521;28;20297;-64
2022/11/13 02:53:05;;;;;;;163.17;33.30;;;2.20;99.90;;;;;;4194680;28;20262;-66
2022/11/13 02:55:07;;;;;;;124.90;31.20;;;2.20;99.90;;;;;;4194503;28;20648;-64
2022/11/13 02:57:08;;;;;;;194.20;34.30;;;2.20;99.90;;;;;;4194178;28;20311;-65
2022/11/13 02:59:09;;;;;;;228.33;37.00;;;2.20;99.90;;;;;;4194673;28;20854;-64
2022/11/13 03:01:10;;;;;;;145.43;33.90;;;2.20;99.90;;;;;;4192991;28;20274;-64
2022/11/13 03:03:11;;;;;;;222.53;36.13;;;2.20;99.90;;;;;;4194244;28;20907;-64
2022/11/13 03:05:13;;;;;;;178.20;34.63;;;2.20;99.90;;;;;;4193898;28;20656;-64
2022/11/13 03:07:14;;;;;;;191.97;35.07;;;2.20;99.90;;;;;;4195088;28;20688;-63
2022/11/13 03:09:15;;;;;;;226.90;40.00;;;2.20;99.90;;;;;;4175382;28;20740;-63
2022/11/13 03:11:16;;;;;;;158.43;35.47;;;2.20;99.90;;;;;;4194886;28;21033;-64
2022/11/13 03:13:17;;;;;;;179.23;38.67;;;2.20;99.90;;;;;;4175545;28;20274;-64
2022/11/13 03:15:19;;;;;;;246.33;44.57;;;2.10;99.90;;;;;;4194987;28;20319;-65
2022/11/13 03:17:20;;;;;;;128.83;45.13;;;2.10;99.90;;;;;;4193871;28;20273;-64
2022/11/13 03:19:21;;;;;;;176.57;46.97;;;2.10;99.90;;;;;;4194181;28;20273;-64
2022/11/13 03:21:23;;;;;;;306.53;57.67;;;2.10;99.90;;;;;;4193997;28;20265;-64
2022/11/13 03:23:24;;;;;;;179.70;44.87;;;2.10;99.90;;;;;;4194478;28;20262;-65
2022/11/13 03:25:25;;;;;;;168.97;41.97;;;2.10;99.90;;;;;;4194170;28;21241;-64
2022/11/13 03:27:28;;;;;;;223.87;49.57;;;2.10;99.90;;;;;;4194135;28;20269;-63
2022/11/13 03:29:30;;;;;;;263.63;50.73;;;2.20;99.90;;;;;;4193798;28;20708;-64
2022/11/13 03:31:31;;;;;;;188.23;45.83;;;2.20;99.90;;;;;;4193562;28;20281;-63
2022/11/13 03:33:32;;;;;;;169.90;42.40;;;2.20;99.90;;;;;;4194047;28;20704;-63
2022/11/13 03:35:33;;;;;;;309.07;45.70;;;2.20;99.90;;;;;;4193658;28;20668;-62
2022/11/13 03:37:34;;;;;;;188.37;36.40;;;2.10;99.90;;;;;;4195326;28;20311;-65
2022/11/13 03:39:35;;;;;;;170.67;34.67;;;2.10;99.90;;;;;;4193694;28;20322;-64
2022/11/13 03:41:36;;;;;;;365.70;47.23;;;2.00;99.90;;;;;;4194580;28;20327;-66
2022/11/13 03:43:38;;;;;;;236.97;36.53;;;2.00;99.90;;;;;;4193640;28;20310;-63
2022/11/13 03:45:39;;;;;;;208.57;34.63;;;2.00;99.90;;;;;;4196067;28;20269;-63
2022/11/13 03:47:40;;;;;;;304.07;36.03;;;2.00;99.90;;;;;;4196965;28;20331;-64
2022/11/13 03:49:41;;;;;;;209.03;29.77;;;2.00;99.90;;;;;;4180294;28;20669;-63
2022/11/13 03:51:42;;;;;;;87.83;26.97;;;2.00;99.90;;;;;;4195884;28;20374;-63
2022/11/13 03:53:43;;;;;;;128.57;29.47;;;2.00;99.90;;;;;;4197732;28;20277;-66
2022/11/13 03:55:46;;;;;;;191.60;29.80;;;2.10;99.90;;;;;;4197118;28;20290;-63
2022/11/13 03:57:47;;;;;;;64.17;26.17;;;2.10;99.90;;;;;;4197284;28;20727;-63
2022/11/13 03:59:48;;;;;;;132.00;28.43;;;2.10;99.90;;;;;;4197431;28;20250;-64
2022/11/13 04:01:49;;;;;;;168.83;34.67;;;2.20;99.90;;;;;;4196721;28;20273;-64
2022/11/13 04:03:50;;;;;;;128.93;28.23;;;2.20;99.90;;;;;;4197931;28;20310;-63
2022/11/13 04:05:51;;;;;;;123.23;27.87;;;2.10;99.90;;;;;;4196455;28;20273;-64
2022/11/13 04:07:53;;;;;;;219.53;34.07;;;2.00;99.90;;;;;;4198207;28;20287;-67
2022/11/13 04:09:54;;;;;;;138.57;27.20;;;1.90;99.90;;;;;;4196470;28;20828;-63
2022/11/13 04:11:55;;;;;;;117.03;29.30;;;1.80;99.90;;;;;;4197343;28;20339;-65
2022/11/13 04:13:56;;;;;;;151.13;31.47;;;2.00;99.90;;;;;;4196366;28;20265;-64
2022/11/13 04:15:57;;;;;;;146.37;28.37;;;2.00;99.90;;;;;;4196954;28;20330;-65
2022/11/13 04:17:58;;;;;;;122.77;28.20;;;2.00;99.90;;;;;;4196419;28;20659;-64
2022/11/13 04:19:59;;;;;;;217.03;35.30;;;1.90;99.90;;;;;;4196888;28;20347;-63
2022/11/13 04:22:01;;;;;;;235.50;32.40;;;1.90;99.90;;;;;;4196664;28;20258;-64
2022/11/13 04:24:02;;;;;;;221.77;35.30;;;1.90;99.90;;;;;;4196571;28;20270;-64
2022/11/13 04:26:03;;;;;;;146.70;30.70;;;1.90;99.90;;;;;;4196710;28;20319;-65
2022/11/13 04:28:04;;;;;;;247.37;37.40;;;1.90;99.90;;;;;;4196859;28;20262;-64
2022/11/13 04:30:06;;;;;;;282.80;38.87;;;1.90;99.90;;;;;;4196777;28;20709;-63
2022/11/13 04:32:08;;;;;;;209.77;33.90;;;1.80;99.90;;;;;;4196287;28;20363;-64
2022/11/13 04:34:09;;;;;;;137.67;30.40;;;1.90;99.90;;;;;;4196691;28;20277;-63
2022/11/13 04:36:10;;;;;;;98.57;31.13;;;1.80;99.90;;;;;;4195994;28;20266;-63
2022/11/13 04:38:11;;;;;;;233.37;36.37;;;1.90;99.90;;;;;;4197596;28;20335;-63
2022/11/13 04:40:13;;;;;;;83.87;26.70;;;1.90;99.90;;;;;;4195326;28;20269;-65
2022/11/13 04:44:33;;;;;;;153.23;30.13;;;2.00;99.90;;;;;;4196150;28;20315;-64
2022/11/13 04:46:34;;;;;;;110.63;28.77;;;2.00;99.90;;;;;;4196487;28;20770;-67
2022/11/13 04:48:35;;;;;;;218.90;34.13;;;2.00;99.90;;;;;;4195229;28;20672;-65
2022/11/13 04:50:37;;;;;;;176.03;31.33;;;2.00;99.90;;;;;;4197169;28;20258;-65
2022/11/13 04:52:38;;;;;;;267.47;36.10;;;2.00;99.90;;;;;;4194950;28;20301;-65
2022/11/13 04:54:39;;;;;;;222.73;32.00;;;1.90;99.90;;;;;;4196151;28;20323;-66
2022/11/13 04:56:40;;;;;;;231.23;33.00;;;1.90;99.90;;;;;;4195041;28;20308;-64
2022/11/13 04:58:41;;;;;;;108.00;30.17;;;1.90;99.90;;;;;;4194432;28;20319;-64
2022/11/13 05:00:42;;;;;;;221.83;33.03;;;1.90;99.90;;;;;;4196172;28;20583;-64
2022/11/13 05:02:44;;;;;;;191.50;30.23;;;1.90;99.90;;;;;;4195690;28;20270;-66
2022/11/13 05:04:45;;;;;;;188.93;29.63;;;1.90;99.90;;;;;;4196493;28;20261;-65
2022/11/13 05:06:46;;;;;;;173.70;27.60;;;1.90;99.90;;;;;;4177731;28;20278;-67
2022/11/13 05:08:47;;;;;;;201.33;28.50;;;1.80;99.90;;;;;;4196526;28;20285;-65
2022/11/13 05:10:48;;;;;;;191.57;30.03;;;1.80;99.90;;;;;;4195343;28;20293;-65
2022/11/13 05:12:49;;;;;;;223.47;28.70;;;1.80;99.90;;;;;;4197256;28;20297;-67
2022/11/13 05:14:50;;;;;;;218.10;28.60;;;1.70;99.90;;;;;;4195557;28;20331;-67
2022/11/13 05:16:51;;;;;;;222.00;30.40;;;1.70;99.90;;;;;;4196083;28;20327;-69
2022/11/13 05:18:53;;;;;;;147.87;25.60;;;1.60;99.90;;;;;;4195633;28;20323;-66
2022/11/13 05:20:54;;;;;;;152.47;24.60;;;1.60;99.90;;;;;;4196034;28;20266;-65
2022/11/13 05:22:55;;;;;;;211.13;29.57;;;1.60;99.90;;;;;;4194692;28;20672;-65
2022/11/13 05:24:56;;;;;;;298.50;34.83;;;1.60;99.90;;;;;;4196655;28;20733;-68
2022/11/13 05:26:57;;;;;;;245.73;36.10;;;1.60;99.90;;;;;;4195356;28;20262;-66
2022/11/13 05:28:59;;;;;;;88.97;25.40;;;1.60;99.90;;;;;;4196270;28;20322;-63
2022/11/13 05:31:09;;;;;;;346.70;39.77;;;1.60;99.90;;;;;;4195381;28;20249;-65
2022/11/13 05:33:10;;;;;;;164.10;30.07;;;1.60;99.90;;;;;;4195435;28;20342;-64
2022/11/13 05:35:11;;;;;;;220.43;35.40;;;1.60;99.90;;;;;;4195065;28;20279;-66
2022/11/13 05:37:12;;;;;;;324.90;36.57;;;1.70;99.90;;;;;;4195701;28;20261;-64
2022/11/13 05:39:14;;;;;;;167.10;29.63;;;1.60;99.90;;;;;;4195179;28;20348;-63
2022/11/13 05:41:20;;;;;;;220.47;30.10;;;1.60;99.90;;;;;;4195199;28;20265;-66
2022/11/13 05:43:21;;;;;;;294.43;37.27;;;1.60;99.90;;;;;;4195183;28;20304;-64
2022/11/13 05:45:22;;;;;;;145.97;28.90;;;1.60;99.90;;;;;;4195096;28;20254;-64
2022/11/13 05:47:24;;;;;;;167.73;29.43;;;1.60;99.90;;;;;;4195582;28;20684;-64
2022/11/13 05:49:25;;;;;;;137.53;27.03;;;1.70;99.90;;;;;;4195105;28;20746;-63
2022/11/13 05:51:31;;;;;;;215.23;28.77;;;1.70;99.90;;;;;;4194963;28;20293;-65
2022/11/13 05:53:33;;;;;;;223.50;28.67;;;1.70;99.90;;;;;;4194296;28;20760;-64
2022/11/13 05:55:34;;;;;;;174.20;25.47;;;1.70;99.90;;;;;;4195790;28;20257;-64
2022/11/13 05:57:35;;;;;;;324.40;36.90;;;1.70;99.90;;;;;;4183568;28;20530;-65
2022/11/13 05:59:36;;;;;;;229.70;27.53;;;1.70;99.90;;;;;;4179456;28;20315;-64
2022/11/13 06:01:39;;;;;;;178.33;26.07;;;1.60;99.90;;;;;;4178207;28;20270;-64
2022/11/13 06:03:41;;;;;;;133.77;24.17;;;1.60;99.90;;;;;;4179046;28;20665;-63
2022/11/13 06:05:42;;;;;;;152.30;24.73;;;1.60;99.90;;;;;;4178239;28;20312;-68
2022/11/13 06:07:43;;;;;;;139.80;25.60;;;1.60;99.90;;;;;;4178404;28;20258;-65
2022/11/13 06:09:44;;;;;;;266.93;29.27;;;1.60;99.90;;;;;;4178379;28;20331;-65
2022/11/13 06:11:45;;;;;;;140.10;26.90;;;1.60;99.90;;;;;;4177838;28;20347;-63
2022/11/13 06:13:47;;;;;;;159.73;26.83;;;1.50;99.90;;;;;;4178984;28;20316;-66
2022/11/13 06:15:49;;;;;;;159.53;26.07;;;1.50;99.90;;;;;;4177353;28;20270;-67
2022/11/13 06:17:50;;;;;;;72.93;21.57;;;1.50;99.90;;;;;;4179041;28;20669;-65
2022/11/13 06:19:51;;;;;;;115.50;20.53;;;1.40;99.90;;;;;;4178080;28;20274;-65
2022/11/13 06:21:52;;;;;;;65.80;19.23;;;1.40;99.90;;;;;;4179018;28;20272;-64
2022/11/13 06:23:53;;;;;;;113.47;19.07;;;1.40;99.90;;;;;;4177890;28;20835;-64
2022/11/13 06:26:24;;;;;;;138.97;20.47;;;1.30;99.90;;;;;;4179004;28;20791;-64
2022/11/13 06:28:25;;;;;;;97.15;20.00;;;1.30;99.90;;;;;;4175102;28;20344;-64
2022/11/13 06:30:26;;;;;;;119.33;23.20;;;1.30;99.90;;;;;;4178802;28;20025;-65
2022/11/13 06:32:27;;;;;;;98.50;20.77;;;1.30;99.90;;;;;;4176905;28;20306;-64
2022/11/13 06:34:28;;;;;;;134.43;23.00;;;1.30;99.90;;;;;;4178107;28;20270;-64
2022/11/13 06:36:32;;;;;;;125.73;28.93;;;1.30;99.90;;;;;;4177665;28;20342;-65
2022/11/13 06:38:35;;;;;;;76.17;21.63;;;1.40;99.90;;;;;;4178655;28;20312;-64
2022/11/13 06:40:39;;;;;;;60.10;20.63;;;1.40;99.90;;;;;;4177639;28;20317;-64
2022/11/13 06:42:41;;;;;;;153.20;25.33;;;1.50;99.90;;;;;;4179103;28;20576;-65
2022/11/13 06:44:43;;;;;;;96.20;21.67;;;1.60;99.90;;;;;;4177522;28;20254;-65
2022/11/13 06:46:44;;;;;;;123.30;25.03;;;1.50;99.90;;;;;;4177857;28;21048;-65
2022/11/13 06:48:46;;;;;;;123.00;23.53;;;1.50;99.90;;;;;;4176380;28;20327;-65
2022/11/13 06:50:47;;;;;;;157.83;22.77;;;1.50;99.90;;;;;;4159240;28;20263;-66
2022/11/13 06:52:48;;;;;;;96.77;22.80;;;1.50;99.90;;;;;;4177717;28;20688;-65
2022/11/13 06:54:49;;;;;;;132.17;24.53;;;1.50;99.90;;;;;;4177170;28;20316;-65
2022/11/13 06:56:50;;;;;;;76.70;22.97;;;1.50;99.90;;;;;;4177416;28;20266;-64
2022/11/13 06:58:54;;;;;;;146.33;24.83;;;1.50;99.90;;;;;;4177011;28;20262;-64
2022/11/13 07:00:55;;;;;;;128.87;27.10;;;1.60;99.90;;;;;;4178273;28;20735;-64
2022/11/13 07:02:56;;;;;;;159.47;24.57;;;1.60;99.90;;;;;;4176208;28;20270;-63
2022/11/13 07:04:57;;;;;;;86.20;21.67;;;1.60;99.90;;;;;;4178107;28;21238;-63
2022/11/13 07:06:58;;;;;;;272.87;28.93;;;1.60;99.90;;;;;;4176775;28;20250;-63
2022/11/13 07:08:59;;;;;;;169.80;25.27;;;1.50;99.90;;;;;;4177196;28;20738;-64
2022/11/13 07:11:00;;;;;;;112.23;22.03;;;1.40;99.90;;;;;;4175740;28;20297;-64
2022/11/13 07:13:01;;;;;;;129.27;23.63;;;1.50;99.90;;;;;;4177675;28;20294;-63
2022/11/13 07:15:03;;;;;;;151.13;24.57;;;1.50;99.90;;;;;;4177080;28;20262;-64
2022/11/13 07:17:04;;;;;;;103.77;21.83;;;1.60;99.90;;;;;;4177971;28;20254;-64
2022/11/13 07:19:06;;;;;;;163.77;25.60;;;1.60;99.90;;;;;;4176362;28;20749;-64
2022/11/13 07:21:09;;;;;;;220.77;28.60;;;1.70;99.90;;;;;;4176648;28;20270;-64
2022/11/13 07:23:10;;;;;;;111.53;23.93;;;1.60;99.90;;;;;;4177434;28;20723;-65
2022/11/13 07:25:11;;;;;;;224.33;28.07;;;1.60;99.90;;;;;;4176912;28;20714;-63
2022/11/13 07:27:12;;;;;;;268.37;29.07;;;1.50;99.90;;;;;;4177043;28;20266;-64
2022/11/13 07:29:14;;;;;;;169.97;25.43;;;1.50;99.90;;;;;;4176114;28;20837;-64
2022/11/13 07:31:16;;;;;;;133.47;23.47;;;1.60;99.90;;;;;;4177344;28;20266;-64
2022/11/13 07:33:17;;;;;;;167.17;27.60;;;1.60;99.90;;;;;;4176196;28;21100;-64
2022/11/13 07:35:19;;;;;;;109.83;23.33;;;1.60;99.90;;;;;;4177862;28;20320;-64
2022/11/13 07:37:20;;;;;;;102.93;22.83;;;1.60;99.90;;;;;;4158339;28;20721;-67
2022/11/13 07:39:21;;;;;;;148.47;24.53;;;1.70;99.90;;;;;;4177967;28;20254;-69
2022/11/13 07:41:22;;;;;;;112.60;23.60;;;1.70;99.90;;;;;;4158874;28;20682;-64
2022/11/13 07:43:24;;;;;;;169.20;25.87;;;1.70;99.90;;;;;;4177690;28;20319;-64
2022/11/13 07:45:26;;;;;;;140.33;24.03;;;1.60;99.90;;;;;;4176808;28;20255;-65
2022/11/13 07:47:28;;;;;;;84.30;20.73;;;1.60;99.90;;;;;;4176984;28;20258;-65
2022/11/13 07:49:29;;;;;;;152.70;22.27;;;1.60;99.90;;;;;;4177100;28;20254;-66
2022/11/13 07:51:30;;;;;;;202.47;24.57;;;1.60;99.90;;;;;;4177289;28;20292;-63
2022/11/13 07:53:31;;;;;;;141.47;24.03;;;1.60;99.90;;;;;;4175992;28;20293;-64
2022/11/13 07:55:33;;;;;;;146.40;21.93;;;1.60;99.90;;;;;;4176686;28;20273;-68
2022/11/13 07:57:34;;;;;;;77.20;19.53;;;1.60;99.90;;;;;;4177452;28;20657;-65
2022/11/13 07:59:35;;;;;;;145.83;26.27;;;1.70;99.90;;;;;;4175779;28;20324;-65
2022/11/13 08:01:37;;;;;;;83.57;21.27;;;1.70;99.90;;;;;;4177658;28;20384;-65
2022/11/13 08:03:38;;;;;;;170.67;25.20;;;1.90;99.90;;;;;;4175764;28;20270;-65
2022/11/13 08:05:40;;;;;;;64.73;19.77;;;1.90;99.90;;;;;;4177716;28;20316;-65
2022/11/13 08:07:41;;;;;;;78.73;23.10;;;1.90;99.90;;;;;;4176721;28;20265;-65
2022/11/13 08:09:42;;;;;;;213.30;25.00;;;2.00;99.90;;;;;;4176608;28;20278;-69
2022/11/13 08:11:43;;;;;;;82.30;19.17;;;1.90;99.90;;;;;;4176400;28;20312;-65
2022/11/13 08:13:44;;;;;;;74.53;17.00;;;1.90;99.90;;;;;;4178240;28;20258;-65
2022/11/13 08:15:46;;;;;;;81.97;18.83;;;1.80;99.90;;;;;;4176697;28;20262;-65
2022/11/13 08:17:56;;;;;;;122.53;20.60;;;1.90;99.90;;;;;;4177511;28;20266;-66
2022/11/13 08:19:57;;;;;;;43.53;14.90;;;1.90;99.90;;;;;;4176061;28;20282;-65
2022/11/13 08:21:58;;;;;;;52.97;15.30;;;1.90;99.90;;;;;;4177414;28;20025;-64
2022/11/13 08:23:59;;;;;;;126.23;19.17;;;1.90;99.90;;;;;;4175760;28;20266;-64
2022/11/13 08:26:05;;;;;;;68.90;16.77;;;1.80;99.90;;;;;;4176029;28;20266;-64
2022/11/13 08:28:06;;;;;;;117.50;18.43;;;1.80;99.90;;;;;;4176617;28;20254;-63
2022/11/13 08:30:08;;;;;;;76.93;17.13;;;1.80;99.90;;;;;;4175720;28;20758;-65
2022/11/13 08:32:09;;;;;;;142.03;18.70;;;1.70;99.90;;;;;;4178306;28;20379;-65
2022/11/13 08:34:10;;;;;;;111.40;17.27;;;1.80;99.90;;;;;;4178749;28;20819;-64
2022/11/13 08:36:11;;;;;;;54.63;17.03;;;1.80;99.90;;;;;;4180374;28;20270;-64
2022/11/13 08:38:12;;;;;;;221.27;24.00;;;1.80;99.90;;;;;;4179254;28;20320;-65
2022/11/13 08:40:14;;;;;;;142.37;22.20;;;1.90;99.90;;;;;;4180362;28;20274;-65
2022/11/13 08:42:15;;;;;;;215.90;25.23;;;1.90;99.90;;;;;;4179172;28;20664;-64
2022/11/13 08:44:16;;;;;;;132.57;23.20;;;1.80;99.90;;;;;;4162023;28;20274;-67
2022/11/13 08:46:17;;;;;;;160.80;24.27;;;1.90;99.90;;;;;;4179157;28;20316;-66
2022/11/13 08:48:19;;;;;;;139.83;22.40;;;1.90;99.90;;;;;;4180006;28;20359;-68
2022/11/13 08:50:20;;;;;;;188.83;27.03;;;1.90;99.90;;;;;;4179055;28;20320;-66
2022/11/13 08:52:21;;;;;;;56.60;20.90;;;1.90;99.90;;;;;;4179798;28;20834;-67
2022/11/13 08:54:22;;;;;;;134.67;23.30;;;2.00;99.90;;;;;;4161342;28;20668;-64
2022/11/13 08:56:24;;;;;;;199.20;29.60;;;2.10;99.90;;;;;;4179479;28;20738;-66
2022/11/13 08:58:25;;;;;;;130.83;24.37;;;2.10;99.90;;;;;;4179767;28;20266;-67
2022/11/13 09:00:28;;;;;;;149.63;25.73;;;2.10;99.90;;;;;;4178875;28;20308;-64
2022/11/13 09:02:29;;;;;;;146.33;24.30;;;2.20;99.90;;;;;;4179900;28;20270;-66
2022/11/13 09:04:30;;;;;;;62.30;23.77;;;2.20;99.90;;;;;;4178835;28;20278;-66
2022/11/13 09:06:32;;;;;;;119.00;22.47;;;2.20;99.90;;;;;;4180200;28;20274;-65
2022/11/13 09:08:34;;;;;;;90.47;21.60;;;2.30;99.90;;;;;;4178759;28;20286;-63
2022/11/13 09:10:35;;;;;;;90.67;21.17;;;2.30;99.90;;;;;;4179597;28;20375;-64
2022/11/13 09:12:36;;;;;;;116.23;25.40;;;2.30;99.90;;;;;;4178776;28;20340;-64
2022/11/13 09:14:37;;;;;;;120.80;23.77;;;2.40;99.90;;;;;;4179918;28;20665;-64
2022/11/13 09:16:39;;;;;;;70.23;22.63;;;2.30;99.90;;;;;;4178575;28;20266;-65
2022/11/13 09:18:40;;;;;;;149.37;24.03;;;2.30;99.90;;;;;;4179790;28;20886;-66
2022/11/13 09:20:41;;;;;;;61.70;21.87;;;2.30;99.90;;;;;;4160389;28;20259;-63
2022/11/13 09:22:42;;;;;;;155.23;24.47;;;2.20;99.90;;;;;;4179397;28;20266;-66
2022/11/13 09:24:43;;;;;;;74.17;20.30;;;2.30;99.90;;;;;;4178295;28;20274;-63
2022/11/13 09:26:45;;;;;;;98.50;22.53;;;2.30;99.90;;;;;;4178878;28;20311;-65
2022/11/13 09:28:46;;;;;;;109.33;22.60;;;2.40;99.90;;;;;;4179176;28;20316;-63
2022/11/13 09:30:47;;;;;;;58.53;20.87;;;2.40;99.90;;;;;;4178475;28;20274;-69
2022/11/13 09:32:53;;;;;;;186.60;25.93;;;2.40;99.90;;;;;;4179194;28;20286;-67
2022/11/13 09:34:54;;;;;;;57.27;20.20;;;2.40;99.90;;;;;;4177612;28;20730;-64
2022/11/13 09:36:55;;;;;;;148.50;24.77;;;2.40;99.90;;;;;;4178832;28;20376;-65
2022/11/13 09:38:56;;;;;;;116.73;21.03;;;2.40;99.90;;;;;;4177380;28;20332;-64
2022/11/13 09:41:03;;;;;;;74.73;20.47;;;2.50;99.90;;;;;;4179642;28;20665;-68
2022/11/13 09:43:16;;;;;;;105.37;20.83;;;2.50;99.90;;;;;;4177404;28;20324;-64
2022/11/13 09:45:17;;;;;;;105.60;22.67;;;2.50;99.90;;;;;;4179496;28;20331;-64
2022/11/13 09:47:35;;;;;;;63.40;19.63;;;2.60;99.90;;;;;;4177990;28;20379;-65
2022/11/13 09:49:50;;;;;;;37.03;19.17;;;2.70;99.90;;;;;;4179180;28;20263;-67
2022/11/13 09:51:57;;;;;;;170.03;24.90;;;2.80;99.90;;;;;;4178172;28;20292;-67
2022/11/13 09:54:03;;;;;;;127.97;22.20;;;2.80;99.90;;;;;;4178999;28;20347;-64
2022/11/13 09:56:18;;;;;;;72.27;20.97;;;2.90;99.90;;;;;;4177625;28;20292;-63
2022/11/13 09:58:27;;;;;;;318.27;29.30;;;2.90;99.90;;;;;;4178923;28;20266;-68
2022/11/13 10:00:30;;;;;;;132.77;23.07;;;2.90;99.90;;;;;;4177949;28;20270;-64
2022/11/13 10:02:36;;;;;;;103.10;26.00;;;2.90;99.90;;;;;;4179131;28;20311;-64
2022/11/13 10:04:46;;;;;;;109.53;22.80;;;3.00;99.90;;;;;;4178119;28;20387;-62
2022/11/13 10:07:07;;;;;;;198.93;28.93;;;3.00;99.90;;;;;;4160679;28;20309;-65
2022/11/13 10:09:20;;;;;;;186.27;27.95;;;3.00;99.90;;;;;;4177570;28;20290;-63
2022/11/13 10:11:35;;;;;;;120.97;27.07;;;3.00;99.90;;;;;;4178768;28;20060;-66
2022/11/13 10:14:15;;;;;;;158.00;26.37;;;3.10;99.90;;;;;;4177850;28;20290;-64
2022/11/13 10:16:31;;;;;;;107.10;24.07;;;3.20;99.90;;;;;;4176130;28;20266;-68
2022/11/13 10:18:36;;;;;;;49.83;20.97;;;3.10;99.90;;;;;;4159910;28;20277;-64
2022/11/13 10:20:56;;;;;;;49.47;20.80;;;3.20;99.90;;;;;;4177811;28;20258;-66
2022/11/13 10:23:01;;;;;;;81.90;23.63;;;3.30;99.90;;;;;;4160054;28;20275;-65
2022/11/13 10:25:14;;;;;;;50.33;21.10;;;3.40;99.90;;;;;;4159901;28;20037;-63
2022/11/13 10:27:15;;;;;;;60.83;22.87;;;3.40;99.90;;;;;;4177113;28;20269;-64